sensor_id;sensor_type;location;lat;lon;timestamp;P1;durP1;ratioP1;P2;durP2;ratioP2
16286;SDS011;8251;53.568;10.018;2022-08-24T00:00:07;9.47;;;1.40;;
16286;SDS011;8251;53.568;10.018;2022-08-24T00:02:37;2.13;;;1.07;;
16286;SDS011;8251;53.568;10.018;2022-08-24T00:05:04;2.07;;;1.00;;
16286;SDS011;8251;53.568;10.018;2022-08-24T00:07:33;2.77;;;1.20;;
16286;SDS011;8251;53.568;10.018;2022-08-24T00:10:00;1.43;;;1.03;;
16286;SDS011;8251;53.568;10.018;2022-08-24T00:12:28;1.23;;;1.10;;
16286;SDS011;8251;53.568;10.018;2022-08-24T00:14:57;1.83;;;1.17;;
16286;SDS011;8251;53.568;10.018;2022-08-24T00:17:24;1.83;;;1.10;;
16286;SDS011;8251;53.568;10.018;2022-08-24T00:19:51;3.03;;;1.63;;
16286;SDS011;8251;53.568;10.018;2022-08-24T00:22:19;2.13;;;1.30;;
16286;SDS011;8251;53.568;10.018;2022-08-24T00:24:46;3.00;;;1.40;;
16286;SDS011;8251;53.568;10.018;2022-08-24T00:27:13;2.00;;;1.30;;
16286;SDS011;8251;53.568;10.018;2022-08-24T00:29:40;6.37;;;1.43;;
16286;SDS011;8251;53.568;10.018;2022-08-24T00:32:08;3.07;;;1.10;;
16286;SDS011;8251;53.568;10.018;2022-08-24T00:34:35;3.67;;;1.17;;
16286;SDS011;8251;53.568;10.018;2022-08-24T00:37:02;3.77;;;1.70;;
16286;SDS011;8251;53.568;10.018;2022-08-24T00:39:29;3.40;;;1.23;;
16286;SDS011;8251;53.568;10.018;2022-08-24T00:41:57;1.90;;;1.30;;
16286;SDS011;8251;53.568;10.018;2022-08-24T00:44:24;3.40;;;1.50;;
16286;SDS011;8251;53.568;10.018;2022-08-24T00:46:52;1.60;;;1.33;;
16286;SDS011;8251;53.568;10.018;2022-08-24T00:49:24;5.53;;;1.30;;
16286;SDS011;8251;53.568;10.018;2022-08-24T00:51:55;1.33;;;1.10;;
16286;SDS011;8251;53.568;10.018;2022-08-24T00:54:29;1.73;;;1.20;;
16286;SDS011;8251;53.568;10.018;2022-08-24T00:56:59;4.03;;;1.20;;
16286;SDS011;8251;53.568;10.018;2022-08-24T00:59:30;4.13;;;1.37;;
16286;SDS011;8251;53.568;10.018;2022-08-24T01:02:01;7.27;;;1.50;;
16286;SDS011;8251;53.568;10.018;2022-08-24T01:04:33;4.60;;;1.30;;
16286;SDS011;8251;53.568;10.018;2022-08-24T01:07:04;5.13;;;1.50;;
16286;SDS011;8251;53.568;10.018;2022-08-24T01:09:31;4.37;;;1.50;;
16286;SDS011;8251;53.568;10.018;2022-08-24T01:11:58;2.63;;;1.60;;
16286;SDS011;8251;53.568;10.018;2022-08-24T01:14:25;2.57;;;1.10;;
16286;SDS011;8251;53.568;10.018;2022-08-24T01:16:52;4.80;;;1.30;;
16286;SDS011;8251;53.568;10.018;2022-08-24T01:19:39;2.00;;;1.27;;
16286;SDS011;8251;53.568;10.018;2022-08-24T01:22:24;6.90;;;1.30;;
16286;SDS011;8251;53.568;10.018;2022-08-24T01:25:04;3.23;;;1.20;;
16286;SDS011;8251;53.568;10.018;2022-08-24T01:27:32;2.43;;;1.20;;
16286;SDS011;8251;53.568;10.018;2022-08-24T01:30:01;1.17;;;1.00;;
16286;SDS011;8251;53.568;10.018;2022-08-24T01:32:32;2.03;;;1.30;;
16286;SDS011;8251;53.568;10.018;2022-08-24T01:34:59;3.13;;;1.13;;
16286;SDS011;8251;53.568;10.018;2022-08-24T01:37:26;3.50;;;1.70;;
16286;SDS011;8251;53.568;10.018;2022-08-24T01:39:55;2.53;;;1.87;;
16286;SDS011;8251;53.568;10.018;2022-08-24T01:42:25;3.73;;;1.43;;
16286;SDS011;8251;53.568;10.018;2022-08-24T01:44:54;6.30;;;2.53;;
16286;SDS011;8251;53.568;10.018;2022-08-24T01:47:20;3.30;;;1.50;;
16286;SDS011;8251;53.568;10.018;2022-08-24T01:49:48;2.50;;;1.23;;
16286;SDS011;8251;53.568;10.018;2022-08-24T01:52:16;1.53;;;1.37;;
16286;SDS011;8251;53.568;10.018;2022-08-24T01:54:45;1.40;;;1.30;;
16286;SDS011;8251;53.568;10.018;2022-08-24T01:57:13;5.73;;;1.60;;
16286;SDS011;8251;53.568;10.018;2022-08-24T01:59:42;2.00;;;1.17;;
16286;SDS011;8251;53.568;10.018;2022-08-24T02:02:10;2.63;;;1.03;;
16286;SDS011;8251;53.568;10.018;2022-08-24T02:04:39;3.80;;;1.30;;
16286;SDS011;8251;53.568;10.018;2022-08-24T02:07:06;1.90;;;1.30;;
16286;SDS011;8251;53.568;10.018;2022-08-24T02:09:33;3.77;;;1.50;;
16286;SDS011;8251;53.568;10.018;2022-08-24T02:12:00;1.30;;;1.20;;
16286;SDS011;8251;53.568;10.018;2022-08-24T02:14:27;8.23;;;2.00;;
16286;SDS011;8251;53.568;10.018;2022-08-24T02:16:56;4.30;;;1.53;;
16286;SDS011;8251;53.568;10.018;2022-08-24T02:19:24;2.30;;;1.17;;
16286;SDS011;8251;53.568;10.018;2022-08-24T02:21:51;3.53;;;1.30;;
16286;SDS011;8251;53.568;10.018;2022-08-24T02:24:19;1.73;;;1.33;;
16286;SDS011;8251;53.568;10.018;2022-08-24T02:26:46;3.50;;;2.37;;
16286;SDS011;8251;53.568;10.018;2022-08-24T02:29:13;1.67;;;1.53;;
16286;SDS011;8251;53.568;10.018;2022-08-24T02:31:41;2.57;;;1.50;;
16286;SDS011;8251;53.568;10.018;2022-08-24T02:34:10;3.50;;;1.60;;
16286;SDS011;8251;53.568;10.018;2022-08-24T02:36:37;3.57;;;1.20;;
16286;SDS011;8251;53.568;10.018;2022-08-24T02:39:05;2.60;;;1.77;;
16286;SDS011;8251;53.568;10.018;2022-08-24T02:41:33;4.93;;;1.53;;
16286;SDS011;8251;53.568;10.018;2022-08-24T02:44:00;3.47;;;1.63;;
16286;SDS011;8251;53.568;10.018;2022-08-24T02:46:28;2.53;;;1.30;;
16286;SDS011;8251;53.568;10.018;2022-08-24T02:48:56;1.97;;;1.33;;
16286;SDS011;8251;53.568;10.018;2022-08-24T02:51:26;2.87;;;1.60;;
16286;SDS011;8251;53.568;10.018;2022-08-24T02:53:55;4.30;;;1.10;;
16286;SDS011;8251;53.568;10.018;2022-08-24T02:56:22;2.50;;;1.37;;
16286;SDS011;8251;53.568;10.018;2022-08-24T02:58:50;4.03;;;1.63;;
16286;SDS011;8251;53.568;10.018;2022-08-24T03:01:17;1.80;;;1.10;;
16286;SDS011;8251;53.568;10.018;2022-08-24T03:03:45;6.63;;;1.53;;
16286;SDS011;8251;53.568;10.018;2022-08-24T03:06:12;4.03;;;1.60;;
16286;SDS011;8251;53.568;10.018;2022-08-24T03:08:42;1.60;;;1.40;;
16286;SDS011;8251;53.568;10.018;2022-08-24T03:11:10;2.70;;;1.40;;
16286;SDS011;8251;53.568;10.018;2022-08-24T03:13:38;7.37;;;1.53;;
16286;SDS011;8251;53.568;10.018;2022-08-24T03:16:05;7.70;;;1.77;;
16286;SDS011;8251;53.568;10.018;2022-08-24T03:18:32;4.60;;;1.67;;
16286;SDS011;8251;53.568;10.018;2022-08-24T03:21:01;3.43;;;1.30;;
16286;SDS011;8251;53.568;10.018;2022-08-24T03:23:29;5.93;;;1.67;;
16286;SDS011;8251;53.568;10.018;2022-08-24T03:25:58;4.57;;;1.47;;
16286;SDS011;8251;53.568;10.018;2022-08-24T03:28:26;5.50;;;1.80;;
16286;SDS011;8251;53.568;10.018;2022-08-24T03:30:53;2.70;;;1.30;;
16286;SDS011;8251;53.568;10.018;2022-08-24T03:33:20;1.67;;;1.30;;
16286;SDS011;8251;53.568;10.018;2022-08-24T03:35:47;4.23;;;2.03;;
16286;SDS011;8251;53.568;10.018;2022-08-24T03:38:14;2.53;;;1.57;;
16286;SDS011;8251;53.568;10.018;2022-08-24T03:40:42;4.30;;;1.73;;
16286;SDS011;8251;53.568;10.018;2022-08-24T03:43:10;3.40;;;1.90;;
16286;SDS011;8251;53.568;10.018;2022-08-24T03:45:58;5.50;;;2.90;;
16286;SDS011;8251;53.568;10.018;2022-08-24T03:48:27;4.00;;;2.20;;
16286;SDS011;8251;53.568;10.018;2022-08-24T03:50:54;5.20;;;2.60;;
16286;SDS011;8251;53.568;10.018;2022-08-24T03:53:22;2.50;;;2.00;;
16286;SDS011;8251;53.568;10.018;2022-08-24T03:55:49;3.67;;;2.47;;
16286;SDS011;8251;53.568;10.018;2022-08-24T03:58:17;6.37;;;1.80;;
16286;SDS011;8251;53.568;10.018;2022-08-24T04:00:44;4.50;;;2.43;;
16286;SDS011;8251;53.568;10.018;2022-08-24T04:03:11;2.63;;;1.80;;
16286;SDS011;8251;53.568;10.018;2022-08-24T04:05:39;3.97;;;2.40;;
16286;SDS011;8251;53.568;10.018;2022-08-24T04:08:07;2.60;;;2.10;;
16286;SDS011;8251;53.568;10.018;2022-08-24T04:10:35;3.67;;;2.17;;
16286;SDS011;8251;53.568;10.018;2022-08-24T04:13:03;3.80;;;1.77;;
16286;SDS011;8251;53.568;10.018;2022-08-24T04:15:37;3.23;;;1.77;;
16286;SDS011;8251;53.568;10.018;2022-08-24T04:18:05;3.97;;;1.83;;
16286;SDS011;8251;53.568;10.018;2022-08-24T04:20:36;3.67;;;1.93;;
16286;SDS011;8251;53.568;10.018;2022-08-24T04:23:06;3.20;;;1.93;;
16286;SDS011;8251;53.568;10.018;2022-08-24T04:25:39;4.43;;;2.30;;
16286;SDS011;8251;53.568;10.018;2022-08-24T04:28:07;6.43;;;1.83;;
16286;SDS011;8251;53.568;10.018;2022-08-24T04:30:42;6.20;;;2.40;;
16286;SDS011;8251;53.568;10.018;2022-08-24T04:33:15;7.20;;;2.13;;
16286;SDS011;8251;53.568;10.018;2022-08-24T04:35:43;3.93;;;2.73;;
16286;SDS011;8251;53.568;10.018;2022-08-24T04:38:12;5.00;;;2.93;;
16286;SDS011;8251;53.568;10.018;2022-08-24T04:40:41;3.53;;;2.90;;
16286;SDS011;8251;53.568;10.018;2022-08-24T04:43:09;4.93;;;3.20;;
16286;SDS011;8251;53.568;10.018;2022-08-24T04:45:37;4.17;;;2.80;;
16286;SDS011;8251;53.568;10.018;2022-08-24T04:48:07;3.80;;;3.20;;
16286;SDS011;8251;53.568;10.018;2022-08-24T04:50:35;2.93;;;2.40;;
16286;SDS011;8251;53.568;10.018;2022-08-24T04:53:03;9.73;;;2.90;;
16286;SDS011;8251;53.568;10.018;2022-08-24T04:55:32;8.00;;;2.93;;
16286;SDS011;8251;53.568;10.018;2022-08-24T04:58:07;3.60;;;2.90;;
16286;SDS011;8251;53.568;10.018;2022-08-24T05:00:35;3.47;;;3.17;;
16286;SDS011;8251;53.568;10.018;2022-08-24T05:03:03;3.03;;;2.53;;
16286;SDS011;8251;53.568;10.018;2022-08-24T05:05:30;3.17;;;2.57;;
16286;SDS011;8251;53.568;10.018;2022-08-24T05:07:57;4.63;;;2.47;;
16286;SDS011;8251;53.568;10.018;2022-08-24T05:10:25;3.60;;;2.30;;
16286;SDS011;8251;53.568;10.018;2022-08-24T05:12:52;4.67;;;2.80;;
16286;SDS011;8251;53.568;10.018;2022-08-24T05:15:19;6.33;;;3.00;;
16286;SDS011;8251;53.568;10.018;2022-08-24T05:17:45;6.37;;;2.20;;
16286;SDS011;8251;53.568;10.018;2022-08-24T05:20:14;3.67;;;2.47;;
16286;SDS011;8251;53.568;10.018;2022-08-24T05:22:41;5.87;;;2.80;;
16286;SDS011;8251;53.568;10.018;2022-08-24T05:25:09;4.63;;;3.37;;
16286;SDS011;8251;53.568;10.018;2022-08-24T05:27:35;4.13;;;2.70;;
16286;SDS011;8251;53.568;10.018;2022-08-24T05:30:03;7.37;;;3.93;;
16286;SDS011;8251;53.568;10.018;2022-08-24T05:32:32;4.70;;;3.47;;
16286;SDS011;8251;53.568;10.018;2022-08-24T05:35:05;6.83;;;3.03;;
16286;SDS011;8251;53.568;10.018;2022-08-24T05:37:38;5.27;;;3.47;;
16286;SDS011;8251;53.568;10.018;2022-08-24T05:40:08;2.87;;;2.17;;
16286;SDS011;8251;53.568;10.018;2022-08-24T05:42:38;6.97;;;3.43;;
16286;SDS011;8251;53.568;10.018;2022-08-24T05:45:06;12.90;;;3.70;;
16286;SDS011;8251;53.568;10.018;2022-08-24T05:47:34;5.57;;;3.03;;
16286;SDS011;8251;53.568;10.018;2022-08-24T05:50:02;4.80;;;2.37;;
16286;SDS011;8251;53.568;10.018;2022-08-24T05:52:30;4.27;;;3.30;;
16286;SDS011;8251;53.568;10.018;2022-08-24T05:54:59;7.77;;;2.40;;
16286;SDS011;8251;53.568;10.018;2022-08-24T05:57:29;5.47;;;3.67;;
16286;SDS011;8251;53.568;10.018;2022-08-24T05:59:57;5.07;;;2.60;;
16286;SDS011;8251;53.568;10.018;2022-08-24T06:02:24;4.70;;;3.27;;
16286;SDS011;8251;53.568;10.018;2022-08-24T06:04:51;4.00;;;3.50;;
16286;SDS011;8251;53.568;10.018;2022-08-24T06:07:18;9.77;;;4.97;;
16286;SDS011;8251;53.568;10.018;2022-08-24T06:09:45;4.87;;;3.73;;
16286;SDS011;8251;53.568;10.018;2022-08-24T06:12:13;4.63;;;3.50;;
16286;SDS011;8251;53.568;10.018;2022-08-24T06:14:43;6.00;;;3.70;;
16286;SDS011;8251;53.568;10.018;2022-08-24T06:17:11;6.20;;;2.60;;
16286;SDS011;8251;53.568;10.018;2022-08-24T06:19:38;3.13;;;2.93;;
16286;SDS011;8251;53.568;10.018;2022-08-24T06:22:05;6.87;;;3.57;;
16286;SDS011;8251;53.568;10.018;2022-08-24T06:24:34;6.33;;;4.30;;
16286;SDS011;8251;53.568;10.018;2022-08-24T06:27:20;11.40;;;4.93;;
16286;SDS011;8251;53.568;10.018;2022-08-24T06:29:50;4.53;;;3.53;;
16286;SDS011;8251;53.568;10.018;2022-08-24T06:32:18;9.90;;;3.53;;
16286;SDS011;8251;53.568;10.018;2022-08-24T06:34:46;11.47;;;3.87;;
16286;SDS011;8251;53.568;10.018;2022-08-24T06:37:13;8.40;;;5.37;;
16286;SDS011;8251;53.568;10.018;2022-08-24T06:39:40;6.13;;;3.63;;
16286;SDS011;8251;53.568;10.018;2022-08-24T06:42:07;4.70;;;4.30;;
16286;SDS011;8251;53.568;10.018;2022-08-24T06:44:36;4.70;;;4.23;;
16286;SDS011;8251;53.568;10.018;2022-08-24T06:47:03;6.97;;;4.63;;
16286;SDS011;8251;53.568;10.018;2022-08-24T06:49:30;5.50;;;4.77;;
16286;SDS011;8251;53.568;10.018;2022-08-24T06:51:57;5.73;;;4.23;;
16286;SDS011;8251;53.568;10.018;2022-08-24T06:54:24;4.73;;;4.10;;
16286;SDS011;8251;53.568;10.018;2022-08-24T06:56:51;7.67;;;4.60;;
16286;SDS011;8251;53.568;10.018;2022-08-24T06:59:20;4.70;;;3.73;;
16286;SDS011;8251;53.568;10.018;2022-08-24T07:01:53;6.27;;;4.40;;
16286;SDS011;8251;53.568;10.018;2022-08-24T07:04:25;4.67;;;3.27;;
16286;SDS011;8251;53.568;10.018;2022-08-24T07:06:56;4.93;;;4.03;;
16286;SDS011;8251;53.568;10.018;2022-08-24T07:09:23;8.23;;;4.10;;
16286;SDS011;8251;53.568;10.018;2022-08-24T07:11:51;4.38;;;3.88;;
16286;SDS011;8251;53.568;10.018;2022-08-24T07:14:18;5.22;;;3.78;;
16286;SDS011;8251;53.568;10.018;2022-08-24T07:16:45;5.30;;;4.00;;
16286;SDS011;8251;53.568;10.018;2022-08-24T07:19:15;3.90;;;3.60;;
16286;SDS011;8251;53.568;10.018;2022-08-24T07:21:42;4.07;;;3.70;;
16286;SDS011;8251;53.568;10.018;2022-08-24T07:24:09;4.45;;;3.50;;
16286;SDS011;8251;53.568;10.018;2022-08-24T07:26:37;5.25;;;4.85;;
16286;SDS011;8251;53.568;10.018;2022-08-24T07:29:09;6.40;;;4.30;;
16286;SDS011;8251;53.568;10.018;2022-08-24T07:31:39;3.63;;;3.42;;
16286;SDS011;8251;53.568;10.018;2022-08-24T07:34:08;3.85;;;3.38;;
16286;SDS011;8251;53.568;10.018;2022-08-24T07:36:38;3.50;;;3.20;;
16286;SDS011;8251;53.568;10.018;2022-08-24T07:39:06;5.22;;;4.18;;
16286;SDS011;8251;53.568;10.018;2022-08-24T07:41:36;4.28;;;3.67;;
16286;SDS011;8251;53.568;10.018;2022-08-24T07:44:04;8.48;;;4.00;;
16286;SDS011;8251;53.568;10.018;2022-08-24T07:46:31;5.15;;;3.97;;
16286;SDS011;8251;53.568;10.018;2022-08-24T07:48:58;12.77;;;4.38;;
16286;SDS011;8251;53.568;10.018;2022-08-24T07:51:25;5.22;;;2.33;;
16286;SDS011;8251;53.568;10.018;2022-08-24T07:53:53;5.78;;;2.20;;
16286;SDS011;8251;53.568;10.018;2022-08-24T07:56:21;6.47;;;2.33;;
16286;SDS011;8251;53.568;10.018;2022-08-24T07:58:49;4.80;;;2.40;;
16286;SDS011;8251;53.568;10.018;2022-08-24T08:01:15;4.57;;;2.33;;
16286;SDS011;8251;53.568;10.018;2022-08-24T08:03:43;5.63;;;2.38;;
16286;SDS011;8251;53.568;10.018;2022-08-24T08:06:10;4.47;;;1.70;;
16286;SDS011;8251;53.568;10.018;2022-08-24T08:08:38;4.38;;;2.03;;
16286;SDS011;8251;53.568;10.018;2022-08-24T08:11:08;7.57;;;1.80;;
16286;SDS011;8251;53.568;10.018;2022-08-24T08:13:35;3.13;;;1.80;;
16286;SDS011;8251;53.568;10.018;2022-08-24T08:16:03;6.72;;;2.10;;
16286;SDS011;8251;53.568;10.018;2022-08-24T08:18:31;4.80;;;3.03;;
16286;SDS011;8251;53.568;10.018;2022-08-24T08:20:58;5.05;;;2.13;;
16286;SDS011;8251;53.568;10.018;2022-08-24T08:23:27;2.08;;;1.88;;
16286;SDS011;8251;53.568;10.018;2022-08-24T08:26:14;4.90;;;2.05;;
16286;SDS011;8251;53.568;10.018;2022-08-24T08:28:44;3.95;;;2.17;;
16286;SDS011;8251;53.568;10.018;2022-08-24T08:31:11;5.93;;;2.30;;
16286;SDS011;8251;53.568;10.018;2022-08-24T08:33:38;3.90;;;2.17;;
16286;SDS011;8251;53.568;10.018;2022-08-24T08:36:07;2.45;;;1.80;;
16286;SDS011;8251;53.568;10.018;2022-08-24T08:38:36;4.68;;;2.30;;
16286;SDS011;8251;53.568;10.018;2022-08-24T08:41:18;3.03;;;2.10;;
16286;SDS011;8251;53.568;10.018;2022-08-24T08:44:21;4.63;;;2.00;;
16286;SDS011;8251;53.568;10.018;2022-08-24T08:47:02;8.02;;;1.92;;
16286;SDS011;8251;53.568;10.018;2022-08-24T08:49:48;3.05;;;1.83;;
16286;SDS011;8251;53.568;10.018;2022-08-24T08:52:39;5.35;;;2.25;;
16286;SDS011;8251;53.568;10.018;2022-08-24T08:55:29;4.95;;;1.90;;
16286;SDS011;8251;53.568;10.018;2022-08-24T08:58:06;7.63;;;1.88;;
16286;SDS011;8251;53.568;10.018;2022-08-24T09:00:52;5.75;;;2.10;;
16286;SDS011;8251;53.568;10.018;2022-08-24T09:03:49;4.97;;;2.00;;
16286;SDS011;8251;53.568;10.018;2022-08-24T09:06:32;3.78;;;2.08;;
16286;SDS011;8251;53.568;10.018;2022-08-24T09:09:16;6.43;;;2.53;;
16286;SDS011;8251;53.568;10.018;2022-08-24T09:11:55;2.50;;;1.90;;
16286;SDS011;8251;53.568;10.018;2022-08-24T09:14:39;5.18;;;2.65;;
16286;SDS011;8251;53.568;10.018;2022-08-24T09:17:30;9.05;;;2.38;;
16286;SDS011;8251;53.568;10.018;2022-08-24T09:20:18;2.55;;;1.63;;
16286;SDS011;8251;53.568;10.018;2022-08-24T09:22:59;3.13;;;2.20;;
16286;SDS011;8251;53.568;10.018;2022-08-24T09:25:33;4.47;;;2.17;;
16286;SDS011;8251;53.568;10.018;2022-08-24T09:28:20;4.30;;;2.05;;
16286;SDS011;8251;53.568;10.018;2022-08-24T09:31:13;6.20;;;2.20;;
16286;SDS011;8251;53.568;10.018;2022-08-24T09:33:49;6.22;;;2.45;;
16286;SDS011;8251;53.568;10.018;2022-08-24T09:36:32;2.25;;;1.70;;
16286;SDS011;8251;53.568;10.018;2022-08-24T09:39:13;6.75;;;2.22;;
16286;SDS011;8251;53.568;10.018;2022-08-24T09:45:11;3.10;;;1.83;;
16286;SDS011;8251;53.568;10.018;2022-08-24T09:48:02;4.28;;;2.30;;
16286;SDS011;8251;53.568;10.018;2022-08-24T09:50:54;3.03;;;1.90;;
16286;SDS011;8251;53.568;10.018;2022-08-24T09:56:33;2.90;;;2.17;;
16286;SDS011;8251;53.568;10.018;2022-08-24T09:59:22;4.57;;;1.70;;
16286;SDS011;8251;53.568;10.018;2022-08-24T10:02:08;3.55;;;1.83;;
16286;SDS011;8251;53.568;10.018;2022-08-24T10:04:54;11.60;;;1.85;;
16286;SDS011;8251;53.568;10.018;2022-08-24T10:07:30;6.00;;;1.90;;
16286;SDS011;8251;53.568;10.018;2022-08-24T10:10:12;3.85;;;2.13;;
16286;SDS011;8251;53.568;10.018;2022-08-24T10:13:02;3.78;;;1.77;;
16286;SDS011;8251;53.568;10.018;2022-08-24T10:15:37;5.43;;;2.03;;
16286;SDS011;8251;53.568;10.018;2022-08-24T10:18:17;2.55;;;2.00;;
16286;SDS011;8251;53.568;10.018;2022-08-24T10:21:04;2.53;;;2.20;;
16286;SDS011;8251;53.568;10.018;2022-08-24T10:23:42;5.28;;;2.15;;
16286;SDS011;8251;53.568;10.018;2022-08-24T10:26:31;6.93;;;2.10;;
16286;SDS011;8251;53.568;10.018;2022-08-24T10:29:12;3.05;;;2.15;;
16286;SDS011;8251;53.568;10.018;2022-08-24T10:31:56;6.70;;;2.35;;
16286;SDS011;8251;53.568;10.018;2022-08-24T10:34:40;3.35;;;2.10;;
16286;SDS011;8251;53.568;10.018;2022-08-24T10:37:24;5.82;;;1.80;;
16286;SDS011;8251;53.568;10.018;2022-08-24T10:40:13;3.63;;;1.80;;
16286;SDS011;8251;53.568;10.018;2022-08-24T10:43:06;4.13;;;1.73;;
16286;SDS011;8251;53.568;10.018;2022-08-24T10:51:59;3.45;;;1.65;;
16286;SDS011;8251;53.568;10.018;2022-08-24T10:55:15;5.38;;;2.92;;
16286;SDS011;8251;53.568;10.018;2022-08-24T10:57:49;3.50;;;1.70;;
16286;SDS011;8251;53.568;10.018;2022-08-24T11:00:31;8.32;;;2.58;;
16286;SDS011;8251;53.568;10.018;2022-08-24T11:03:06;11.07;;;2.10;;
16286;SDS011;8251;53.568;10.018;2022-08-24T11:05:37;2.40;;;2.10;;
16286;SDS011;8251;53.568;10.018;2022-08-24T11:08:07;4.07;;;1.92;;
16286;SDS011;8251;53.568;10.018;2022-08-24T11:10:45;2.53;;;2.00;;
16286;SDS011;8251;53.568;10.018;2022-08-24T11:13:27;2.85;;;1.90;;
16286;SDS011;8251;53.568;10.018;2022-08-24T11:15:55;5.30;;;2.20;;
16286;SDS011;8251;53.568;10.018;2022-08-24T11:18:24;4.35;;;2.30;;
16286;SDS011;8251;53.568;10.018;2022-08-24T11:20:52;7.78;;;2.40;;
16286;SDS011;8251;53.568;10.018;2022-08-24T11:23:21;2.10;;;1.75;;
16286;SDS011;8251;53.568;10.018;2022-08-24T11:25:56;5.13;;;1.90;;
16286;SDS011;8251;53.568;10.018;2022-08-24T11:28:28;4.10;;;2.05;;
16286;SDS011;8251;53.568;10.018;2022-08-24T11:30:58;3.38;;;2.15;;
16286;SDS011;8251;53.568;10.018;2022-08-24T11:33:28;2.65;;;2.10;;
16286;SDS011;8251;53.568;10.018;2022-08-24T11:35:57;11.15;;;2.33;;
16286;SDS011;8251;53.568;10.018;2022-08-24T11:38:26;4.38;;;2.20;;
16286;SDS011;8251;53.568;10.018;2022-08-24T11:40:59;10.82;;;2.88;;
16286;SDS011;8251;53.568;10.018;2022-08-24T11:43:41;3.72;;;2.10;;
16286;SDS011;8251;53.568;10.018;2022-08-24T11:46:25;2.97;;;1.65;;
16286;SDS011;8251;53.568;10.018;2022-08-24T11:49:01;3.47;;;2.33;;
16286;SDS011;8251;53.568;10.018;2022-08-24T11:51:40;3.97;;;2.22;;
16286;SDS011;8251;53.568;10.018;2022-08-24T11:54:13;2.63;;;1.65;;
16286;SDS011;8251;53.568;10.018;2022-08-24T11:56:51;5.00;;;2.55;;
16286;SDS011;8251;53.568;10.018;2022-08-24T11:59:35;2.97;;;2.10;;
16286;SDS011;8251;53.568;10.018;2022-08-24T12:02:10;3.03;;;1.80;;
16286;SDS011;8251;53.568;10.018;2022-08-24T12:04:45;2.53;;;1.73;;
16286;SDS011;8251;53.568;10.018;2022-08-24T12:07:21;4.85;;;2.00;;
16286;SDS011;8251;53.568;10.018;2022-08-24T12:10:00;3.55;;;2.85;;
16286;SDS011;8251;53.568;10.018;2022-08-24T12:12:49;2.55;;;1.90;;
16286;SDS011;8251;53.568;10.018;2022-08-24T12:15:23;4.53;;;2.15;;
16286;SDS011;8251;53.568;10.018;2022-08-24T12:18:03;1.90;;;1.80;;
16286;SDS011;8251;53.568;10.018;2022-08-24T12:20:43;2.88;;;2.30;;
16286;SDS011;8251;53.568;10.018;2022-08-24T12:23:14;2.25;;;1.98;;
16286;SDS011;8251;53.568;10.018;2022-08-24T12:25:46;2.42;;;1.90;;
16286;SDS011;8251;53.568;10.018;2022-08-24T12:28:31;6.63;;;1.98;;
16286;SDS011;8251;53.568;10.018;2022-08-24T12:31:05;7.25;;;2.30;;
16286;SDS011;8251;53.568;10.018;2022-08-24T12:33:36;2.85;;;2.00;;
16286;SDS011;8251;53.568;10.018;2022-08-24T12:36:11;1.70;;;1.60;;
16286;SDS011;8251;53.568;10.018;2022-08-24T12:38:46;3.00;;;1.95;;
16286;SDS011;8251;53.568;10.018;2022-08-24T12:41:19;2.60;;;2.00;;
16286;SDS011;8251;53.568;10.018;2022-08-24T12:43:56;4.40;;;1.73;;
16286;SDS011;8251;53.568;10.018;2022-08-24T12:46:27;3.55;;;2.30;;
16286;SDS011;8251;53.568;10.018;2022-08-24T12:48:56;4.57;;;2.10;;
16286;SDS011;8251;53.568;10.018;2022-08-24T12:51:29;2.50;;;1.80;;
16286;SDS011;8251;53.568;10.018;2022-08-24T12:54:26;4.03;;;2.10;;
16286;SDS011;8251;53.568;10.018;2022-08-24T12:57:11;1.90;;;1.80;;
16286;SDS011;8251;53.568;10.018;2022-08-24T12:59:54;4.10;;;2.10;;
16286;SDS011;8251;53.568;10.018;2022-08-24T13:02:24;4.30;;;2.20;;
16286;SDS011;8251;53.568;10.018;2022-08-24T13:05:04;7.45;;;2.50;;
16286;SDS011;8251;53.568;10.018;2022-08-24T13:07:40;4.22;;;1.85;;
16286;SDS011;8251;53.568;10.018;2022-08-24T13:10:13;6.68;;;2.22;;
16286;SDS011;8251;53.568;10.018;2022-08-24T13:16:00;4.47;;;1.70;;
16286;SDS011;8251;53.568;10.018;2022-08-24T13:21:35;4.63;;;2.20;;
16286;SDS011;8251;53.568;10.018;2022-08-24T13:33:27;2.10;;;1.85;;
16286;SDS011;8251;53.568;10.018;2022-08-24T13:36:00;3.95;;;1.67;;
16286;SDS011;8251;53.568;10.018;2022-08-24T13:38:48;4.57;;;1.80;;
16286;SDS011;8251;53.568;10.018;2022-08-24T13:41:35;4.05;;;2.15;;
16286;SDS011;8251;53.568;10.018;2022-08-24T13:44:28;7.55;;;1.75;;
16286;SDS011;8251;53.568;10.018;2022-08-24T13:47:10;3.25;;;1.70;;
16286;SDS011;8251;53.568;10.018;2022-08-24T13:49:56;4.20;;;2.42;;
16286;SDS011;8251;53.568;10.018;2022-08-24T13:52:38;3.65;;;1.88;;
16286;SDS011;8251;53.568;10.018;2022-08-24T13:55:14;4.82;;;2.30;;
16286;SDS011;8251;53.568;10.018;2022-08-24T13:58:02;5.88;;;3.15;;
16286;SDS011;8251;53.568;10.018;2022-08-24T14:00:37;3.30;;;1.90;;
16286;SDS011;8251;53.568;10.018;2022-08-24T14:06:23;2.42;;;1.60;;
16286;SDS011;8251;53.568;10.018;2022-08-24T14:09:00;3.38;;;1.77;;
16286;SDS011;8251;53.568;10.018;2022-08-24T14:11:56;5.15;;;1.95;;
16286;SDS011;8251;53.568;10.018;2022-08-24T14:14:48;2.15;;;1.60;;
16286;SDS011;8251;53.568;10.018;2022-08-24T14:17:36;2.13;;;1.88;;
16286;SDS011;8251;53.568;10.018;2022-08-24T14:20:28;2.85;;;1.70;;
16286;SDS011;8251;53.568;10.018;2022-08-24T14:23:26;2.50;;;1.58;;
16286;SDS011;8251;53.568;10.018;2022-08-24T14:29:27;3.35;;;1.98;;
16286;SDS011;8251;53.568;10.018;2022-08-24T14:41:00;4.15;;;1.92;;
16286;SDS011;8251;53.568;10.018;2022-08-24T14:43:42;9.25;;;2.50;;
16286;SDS011;8251;53.568;10.018;2022-08-24T14:46:31;5.35;;;2.30;;
16286;SDS011;8251;53.568;10.018;2022-08-24T14:49:07;2.50;;;1.80;;
16286;SDS011;8251;53.568;10.018;2022-08-24T14:51:54;2.25;;;1.52;;
16286;SDS011;8251;53.568;10.018;2022-08-24T14:54:30;3.15;;;1.98;;
16286;SDS011;8251;53.568;10.018;2022-08-24T14:57:18;1.73;;;1.58;;
16286;SDS011;8251;53.568;10.018;2022-08-24T15:00:02;2.60;;;2.13;;
16286;SDS011;8251;53.568;10.018;2022-08-24T15:02:42;2.00;;;1.73;;
16286;SDS011;8251;53.568;10.018;2022-08-24T15:05:34;2.33;;;1.75;;
16286;SDS011;8251;53.568;10.018;2022-08-24T15:08:07;3.33;;;1.80;;
16286;SDS011;8251;53.568;10.018;2022-08-24T15:10:36;3.22;;;1.90;;
16286;SDS011;8251;53.568;10.018;2022-08-24T15:13:29;4.25;;;1.90;;
16286;SDS011;8251;53.568;10.018;2022-08-24T15:16:02;2.28;;;1.83;;
16286;SDS011;8251;53.568;10.018;2022-08-24T15:18:35;2.75;;;2.03;;
16286;SDS011;8251;53.568;10.018;2022-08-24T15:21:10;3.38;;;1.83;;
16286;SDS011;8251;53.568;10.018;2022-08-24T15:23:56;4.78;;;2.00;;
16286;SDS011;8251;53.568;10.018;2022-08-24T15:26:42;3.50;;;1.67;;
16286;SDS011;8251;53.568;10.018;2022-08-24T15:29:20;2.70;;;1.70;;
16286;SDS011;8251;53.568;10.018;2022-08-24T15:31:53;2.47;;;1.75;;
16286;SDS011;8251;53.568;10.018;2022-08-24T15:34:38;2.38;;;1.70;;
16286;SDS011;8251;53.568;10.018;2022-08-24T15:37:09;3.00;;;1.63;;
16286;SDS011;8251;53.568;10.018;2022-08-24T15:39:38;2.47;;;1.80;;
16286;SDS011;8251;53.568;10.018;2022-08-24T15:42:09;3.53;;;1.83;;
16286;SDS011;8251;53.568;10.018;2022-08-24T15:44:40;2.97;;;1.50;;
16286;SDS011;8251;53.568;10.018;2022-08-24T15:47:17;4.20;;;1.92;;
16286;SDS011;8251;53.568;10.018;2022-08-24T15:49:48;2.85;;;2.38;;
16286;SDS011;8251;53.568;10.018;2022-08-24T15:55:29;1.80;;;1.58;;
16286;SDS011;8251;53.568;10.018;2022-08-24T15:58:11;1.52;;;1.45;;
16286;SDS011;8251;53.568;10.018;2022-08-24T16:00:52;3.35;;;2.10;;
16286;SDS011;8251;53.568;10.018;2022-08-24T16:03:44;2.20;;;1.90;;
16286;SDS011;8251;53.568;10.018;2022-08-24T16:06:18;3.47;;;2.08;;
16286;SDS011;8251;53.568;10.018;2022-08-24T16:08:52;4.15;;;2.15;;
16286;SDS011;8251;53.568;10.018;2022-08-24T16:11:27;3.60;;;2.00;;